createdAt,value
2023-03-11T01:43:35.931Z,0.65
2023-03-11T01:46:08.299Z,0.68
2023-03-11T01:48:36.164Z,0.60
2023-03-11T01:51:03.545Z,0.80
2023-03-11T01:53:30.634Z,0.50
2023-03-11T01:55:58.069Z,0.90
2023-03-11T01:58:26.608Z,0.82
2023-03-11T02:00:55.568Z,0.80
2023-03-11T02:03:37.795Z,0.70
2023-03-11T02:06:07.031Z,0.90
2023-03-11T02:08:35.207Z,0.77
2023-03-11T02:11:04.998Z,1.10
2023-03-11T02:13:34.671Z,0.80
2023-03-11T02:16:02.654Z,1.00
2023-03-11T02:18:30.122Z,0.70
2023-03-11T02:21:00.293Z,0.90
2023-03-11T02:23:30.758Z,0.80
2023-03-11T02:26:04.967Z,0.75
2023-03-11T02:28:32.920Z,1.15
2023-03-11T02:31:00.439Z,0.80
2023-03-11T02:33:29.975Z,0.90
2023-03-11T02:35:57.726Z,0.65
2023-03-11T02:38:25.186Z,0.52
2023-03-11T02:40:54.056Z,1.20
2023-03-11T02:43:33.591Z,0.85
2023-03-11T02:46:01.866Z,1.92
2023-03-11T02:48:30.528Z,1.00
2023-03-11T02:50:57.758Z,0.80
2023-03-11T02:53:25.612Z,1.20
2023-03-11T02:55:54.111Z,1.45
2023-03-11T02:58:21.426Z,0.70
2023-03-11T03:00:48.597Z,0.80
2023-03-11T03:03:18.060Z,0.82
2023-03-11T03:05:46.129Z,0.60
2023-03-11T03:08:13.675Z,0.88
2023-03-11T03:10:41.764Z,3.25
2023-03-11T03:13:09.085Z,1.70
2023-03-11T03:15:36.239Z,0.60
2023-03-11T03:18:03.308Z,1.23
2023-03-11T03:20:30.188Z,0.80
2023-03-11T03:23:00.666Z,0.50
2023-03-11T03:25:30.953Z,0.60
2023-03-11T03:28:01.795Z,0.52
2023-03-11T03:30:30.829Z,1.27
2023-03-11T03:32:57.970Z,0.90
2023-03-11T03:35:25.149Z,0.80
2023-03-11T03:38:03.561Z,0.80
2023-03-11T03:40:30.782Z,0.60
2023-03-11T03:43:00.036Z,0.70
2023-03-11T03:45:28.820Z,1.17
2023-03-11T03:47:56.163Z,1.75
2023-03-11T03:50:25.320Z,0.65
2023-03-11T03:52:54.622Z,0.45
2023-03-11T03:55:23.173Z,0.43
2023-03-11T03:57:51.044Z,0.50
2023-03-11T04:00:20.459Z,0.60
2023-03-11T04:02:54.406Z,1.38
2023-03-11T04:07:55.861Z,0.60
2023-03-11T04:10:23.441Z,1.10
2023-03-11T04:12:51.273Z,0.60
2023-03-11T04:15:18.459Z,1.83
2023-03-11T04:17:45.860Z,0.60
2023-03-11T04:20:13.458Z,1.38
2023-03-11T04:22:43.936Z,1.70
2023-03-11T04:25:11.391Z,0.70
2023-03-11T04:27:46.203Z,1.85
2023-03-11T04:30:16.866Z,1.33
2023-03-11T04:32:48.257Z,0.88
2023-03-11T04:35:16.192Z,1.30
2023-03-11T04:37:43.170Z,0.70
2023-03-11T04:40:11.384Z,0.60
2023-03-11T04:42:39.262Z,0.60
2023-03-11T04:45:07.633Z,0.60
2023-03-11T04:47:35.802Z,0.75
2023-03-11T04:50:05.062Z,0.75
2023-03-11T04:52:34.426Z,2.42
2023-03-11T04:55:01.558Z,0.80
2023-03-11T04:57:29.101Z,0.82
2023-03-11T04:59:57.859Z,0.75
2023-03-11T05:02:25.076Z,7.43
2023-03-11T05:04:57.547Z,1.50
2023-03-11T05:07:25.505Z,0.93
2023-03-11T05:09:53.522Z,0.90
2023-03-11T05:12:20.512Z,1.00
2023-03-11T05:14:52.684Z,1.80
2023-03-11T05:17:20.209Z,1.10
2023-03-11T05:19:49.128Z,1.60
2023-03-11T05:22:24.187Z,1.40
2023-03-11T05:24:52.168Z,0.50
2023-03-11T05:27:19.975Z,3.30
2023-03-11T05:29:50.573Z,1.40
2023-03-11T05:32:19.398Z,2.22
2023-03-11T05:34:48.471Z,1.63
2023-03-11T05:37:16.729Z,5.18
2023-03-11T05:39:45.410Z,0.90
2023-03-11T05:42:13.840Z,1.30
2023-03-11T05:44:42.054Z,0.70
2023-03-11T05:47:09.546Z,2.75
2023-03-11T05:49:36.838Z,0.90
2023-03-11T05:52:04.355Z,1.75
2023-03-11T05:54:32.446Z,2.55
2023-03-11T05:56:59.671Z,0.60
2023-03-11T05:59:26.721Z,0.60
2023-03-11T06:01:58.123Z,2.92
2023-03-11T06:04:25.575Z,0.90
2023-03-11T06:06:53.054Z,1.00
2023-03-11T06:09:22.892Z,1.05
2023-03-11T06:11:51.493Z,3.50
2023-03-11T06:14:21.223Z,1.10
2023-03-11T06:16:50.940Z,5.07
2023-03-11T06:19:20.548Z,2.55
2023-03-11T06:21:50.839Z,1.95
2023-03-11T06:24:18.837Z,0.77
2023-03-11T06:26:47.064Z,0.63
2023-03-11T06:29:17.024Z,3.72
2023-03-11T06:31:47.840Z,1.00
2023-03-11T06:34:18.267Z,0.82
2023-03-11T06:37:09.707Z,1.02
2023-03-11T06:39:42.545Z,0.70
2023-03-11T06:42:13.301Z,0.70
2023-03-11T06:44:41.866Z,1.02
2023-03-11T06:47:08.921Z,1.65
2023-03-11T06:49:40.899Z,1.75
2023-03-11T06:52:08.319Z,0.47
2023-03-11T06:54:35.774Z,0.68
2023-03-11T06:57:02.603Z,0.50
2023-03-11T06:59:29.436Z,0.40
2023-03-11T07:01:56.943Z,0.45
2023-03-11T07:04:24.157Z,0.40
2023-03-11T07:06:51.281Z,0.30
2023-03-11T07:09:22.947Z,0.63
2023-03-11T07:11:49.801Z,0.50
2023-03-11T07:14:23.796Z,0.60
2023-03-11T07:16:54.765Z,0.52
2023-03-11T07:19:33.196Z,0.60
2023-03-11T07:21:59.964Z,1.30
2023-03-11T07:24:26.802Z,0.60
2023-03-11T07:26:53.511Z,0.70
2023-03-11T07:29:20.991Z,0.75
2023-03-11T07:31:49.198Z,0.70
2023-03-11T07:34:16.536Z,0.90
2023-03-11T07:36:43.641Z,1.15
2023-03-11T07:39:13.282Z,0.60
2023-03-11T07:41:40.042Z,0.80
2023-03-11T07:44:08.087Z,0.60
2023-03-11T07:46:36.202Z,0.90
2023-03-11T07:49:03.807Z,1.20
2023-03-11T07:51:34.826Z,0.60
2023-03-11T07:54:02.284Z,0.60
2023-03-11T07:56:30.909Z,3.33
2023-03-11T07:58:58.701Z,0.60
2023-03-11T08:01:29.385Z,0.70
2023-03-11T08:03:57.104Z,0.60
2023-03-11T08:06:29.340Z,0.90
2023-03-11T08:08:56.103Z,0.40
2023-03-11T08:11:23.405Z,0.45
2023-03-11T08:13:50.683Z,0.60
2023-03-11T08:16:19.180Z,0.52
2023-03-11T08:18:46.899Z,0.55
2023-03-11T08:21:14.594Z,0.63
2023-03-11T08:23:41.698Z,0.90
2023-03-11T08:26:10.064Z,0.55
2023-03-11T08:28:37.588Z,0.98
2023-03-11T08:31:12.718Z,0.60
2023-03-11T08:33:45.036Z,1.00
2023-03-11T08:36:17.380Z,1.00
2023-03-11T08:38:45.854Z,0.68
2023-03-11T08:41:16.416Z,0.70
2023-03-11T08:44:01.725Z,1.05
2023-03-11T08:46:34.362Z,1.50
2023-03-11T08:49:01.701Z,1.30
2023-03-11T08:51:29.203Z,1.27
2023-03-11T08:53:59.436Z,0.68
2023-03-11T08:56:30.486Z,2.33
2023-03-11T08:58:57.413Z,2.22
2023-03-11T09:01:26.699Z,1.55
2023-03-11T09:03:57.466Z,0.68
2023-03-11T09:06:24.565Z,2.25
2023-03-11T09:08:51.650Z,1.38
2023-03-11T09:11:24.909Z,5.00
2023-03-11T09:13:51.984Z,6.55
2023-03-11T09:16:20.814Z,2.97
2023-03-11T09:19:04.250Z,1.10
2023-03-11T09:21:38.326Z,2.92
2023-03-11T09:24:11.161Z,1.80
2023-03-11T09:26:38.767Z,1.00
2023-03-11T09:29:08.969Z,1.20
2023-03-11T09:31:50.169Z,1.90
2023-03-11T09:34:37.751Z,1.00
2023-03-11T09:37:07.767Z,1.20
2023-03-11T09:39:34.540Z,1.10
2023-03-11T09:42:15.505Z,0.40
2023-03-11T09:44:48.107Z,0.85
2023-03-11T09:47:20.329Z,1.40
2023-03-11T09:50:06.101Z,0.90
2023-03-11T09:52:36.620Z,0.82
2023-03-11T09:55:05.504Z,0.90
2023-03-11T09:57:34.406Z,0.80
2023-03-11T10:00:02.133Z,0.70
2023-03-11T10:02:47.733Z,0.60
2023-03-11T10:05:50.709Z,0.60
2023-03-11T10:08:29.197Z,0.70
2023-03-11T10:11:08.801Z,0.55
2023-03-11T10:13:40.125Z,0.60
2023-03-11T10:16:27.105Z,0.70
2023-03-11T10:19:01.291Z,1.90
2023-03-11T10:21:47.674Z,0.98
2023-03-11T10:24:38.272Z,3.00
2023-03-11T10:27:16.192Z,0.63
2023-03-11T10:29:46.091Z,0.93
2023-03-11T10:32:24.713Z,5.40
2023-03-11T10:35:15.119Z,1.35
2023-03-11T10:37:49.936Z,1.30
2023-03-11T10:40:30.531Z,1.17
2023-03-11T10:43:00.529Z,0.90
2023-03-11T10:45:43.675Z,1.00
2023-03-11T10:48:21.309Z,2.25
2023-03-11T10:51:02.057Z,1.15
2023-03-11T10:53:29.541Z,1.27
2023-03-11T10:56:00.924Z,1.13
2023-03-11T10:58:29.779Z,1.10
2023-03-11T11:01:01.493Z,0.93
2023-03-11T11:03:46.178Z,0.88
2023-03-11T11:06:25.739Z,2.03
2023-03-11T11:09:04.822Z,4.25
2023-03-11T11:11:41.297Z,1.77
2023-03-11T11:17:34.146Z,0.80
2023-03-11T11:20:13.206Z,0.50
2023-03-11T11:23:01.090Z,1.00
2023-03-11T11:25:46.261Z,0.57
2023-03-11T11:28:13.230Z,0.70
2023-03-11T11:31:08.768Z,0.90
2023-03-11T11:33:42.004Z,0.80
2023-03-11T11:36:20.462Z,0.60
2023-03-11T11:39:09.081Z,0.50
2023-03-11T11:42:10.201Z,0.60
2023-03-11T12:16:19.727Z,1.25
2023-03-11T12:32:16.072Z,0.50
2023-03-11T13:22:03.797Z,0.40
2023-03-11T13:33:38.794Z,0.30
2023-03-11T13:36:31.248Z,0.38
2023-03-11T13:45:12.371Z,0.20
2023-03-11T14:19:13.797Z,0.30
2023-03-11T14:21:46.269Z,0.43
2023-03-11T14:27:17.917Z,0.60
2023-03-11T14:29:46.001Z,0.60
2023-03-11T14:32:59.106Z,0.50
2023-03-11T14:37:17.242Z,0.50
2023-03-11T14:40:32.335Z,0.30
2023-03-11T14:43:26.075Z,0.40
2023-03-11T14:46:03.246Z,0.30
2023-03-11T14:48:35.782Z,0.40
2023-03-11T14:51:09.214Z,0.38
2023-03-11T14:53:45.191Z,0.30
2023-03-11T14:56:21.315Z,0.55
2023-03-11T14:59:07.189Z,0.20
2023-03-11T15:01:40.783Z,0.70
2023-03-11T15:04:13.854Z,0.40
2023-03-11T15:06:53.432Z,0.40
2023-03-11T15:09:22.154Z,0.40
2023-03-11T15:11:59.840Z,0.50
2023-03-11T15:14:34.718Z,0.50
2023-03-11T15:17:33.134Z,0.28
2023-03-11T15:20:01.603Z,0.50
2023-03-11T15:22:31.751Z,0.40
2023-03-11T15:25:09.552Z,1.00
2023-03-11T15:27:38.212Z,2.22
2023-03-11T15:30:34.961Z,0.40
2023-03-11T15:33:02.154Z,1.30
2023-03-11T15:35:45.568Z,0.73
2023-03-11T15:38:21.955Z,0.50
2023-03-11T15:41:01.849Z,1.73
2023-03-11T15:43:50.267Z,1.42
2023-03-11T15:46:23.764Z,0.50
2023-03-11T15:48:57.032Z,3.35
2023-03-11T15:51:24.948Z,1.88
2023-03-11T15:53:55.188Z,0.50
2023-03-11T15:56:24.505Z,0.80
2023-03-11T15:58:51.697Z,0.40
2023-03-11T16:01:23.026Z,2.65
2023-03-11T16:03:52.779Z,2.38
2023-03-11T16:06:22.956Z,0.40
2023-03-11T16:08:50.221Z,0.60
2023-03-11T16:11:19.778Z,3.85
2023-03-11T16:13:52.961Z,8.10
2023-03-11T16:16:20.741Z,0.68
2023-03-11T16:18:53.710Z,4.38
2023-03-11T16:21:25.298Z,1.50
2023-03-11T16:23:52.971Z,0.60
2023-03-11T16:26:22.250Z,0.60
2023-03-11T16:28:49.375Z,0.60
2023-03-11T16:31:30.219Z,2.83
2023-03-11T16:33:57.356Z,5.15
2023-03-11T16:36:24.804Z,2.67
2023-03-11T16:38:52.066Z,2.67
2023-03-11T16:41:19.600Z,1.27
2023-03-11T16:43:49.252Z,3.25
2023-03-11T16:46:19.598Z,5.47
2023-03-11T16:48:49.083Z,0.45
2023-03-11T16:51:18.883Z,0.70
2023-03-11T16:53:45.768Z,3.78
2023-03-11T16:56:12.835Z,0.68
2023-03-11T16:58:49.406Z,1.00
2023-03-11T17:01:18.100Z,0.60
2023-03-11T17:03:48.683Z,0.85
2023-03-11T17:06:16.528Z,1.67
2023-03-11T17:08:48.935Z,0.57
2023-03-11T17:11:29.861Z,2.27
2023-03-11T17:14:15.233Z,3.53
2023-03-11T17:16:47.068Z,0.60
2023-03-11T17:19:58.272Z,6.32
2023-03-11T17:22:25.178Z,1.20
2023-03-11T17:24:52.304Z,0.70
2023-03-11T17:27:19.225Z,0.93
2023-03-11T17:29:46.033Z,0.68
2023-03-11T17:32:17.316Z,0.90
2023-03-11T17:34:44.511Z,1.20
2023-03-11T17:37:12.000Z,1.20
2023-03-11T17:39:39.044Z,1.10
2023-03-11T17:42:06.600Z,2.55
2023-03-11T17:44:50.645Z,0.80
2023-03-11T17:47:42.827Z,1.00
2023-03-11T17:50:12.211Z,1.50
2023-03-11T17:52:39.999Z,0.90
2023-03-11T17:55:07.685Z,1.25
2023-03-11T17:57:44.538Z,2.08
2023-03-11T18:02:55.588Z,1.80
2023-03-11T18:05:24.009Z,1.25
2023-03-11T18:07:50.817Z,1.92
2023-03-11T18:10:17.571Z,1.40
2023-03-11T18:12:49.142Z,1.17
2023-03-11T18:15:19.370Z,3.78
2023-03-11T18:17:46.902Z,1.30
2023-03-11T18:20:14.150Z,2.80
2023-03-11T18:22:46.136Z,1.83
2023-03-11T18:25:14.087Z,1.80
2023-03-11T18:27:41.153Z,1.92
2023-03-11T18:35:40.243Z,1.27
2023-03-11T18:38:07.907Z,2.55
2023-03-11T18:40:35.574Z,1.60
2023-03-11T18:43:12.526Z,2.22
2023-03-11T18:45:42.906Z,1.63
2023-03-11T18:48:10.468Z,4.22
2023-03-11T18:50:37.782Z,2.55
2023-03-11T18:53:05.155Z,8.23
2023-03-11T18:55:34.628Z,4.93
2023-03-11T18:58:02.467Z,1.40
2023-03-11T19:00:30.397Z,1.40
2023-03-11T19:02:57.845Z,1.40
2023-03-11T19:05:24.863Z,1.77
2023-03-11T19:08:00.312Z,6.20
2023-03-11T19:10:27.380Z,1.83
2023-03-11T19:12:54.372Z,4.25
2023-03-11T19:15:23.282Z,5.55
2023-03-11T19:18:04.246Z,7.70
2023-03-11T19:20:41.221Z,6.28
2023-03-11T19:23:09.374Z,6.35
2023-03-11T19:25:41.314Z,3.35
2023-03-11T19:28:08.968Z,3.00
2023-03-11T19:30:36.186Z,4.63
2023-03-11T19:33:06.376Z,5.57
2023-03-11T19:35:35.245Z,2.95
2023-03-11T19:38:03.163Z,4.68
2023-03-11T19:40:31.572Z,3.80
2023-03-11T19:42:59.258Z,12.90
2023-03-11T19:45:31.410Z,2.42
2023-03-11T19:49:00.431Z,2.72
2023-03-11T19:51:46.434Z,4.70
2023-03-11T19:54:16.452Z,2.28
2023-03-11T19:56:43.833Z,2.88
2023-03-11T19:59:19.835Z,1.92
2023-03-11T20:01:48.186Z,1.67
2023-03-11T20:04:17.965Z,2.63
2023-03-11T20:06:45.329Z,2.22
2023-03-11T20:09:13.441Z,2.35
2023-03-11T20:11:41.231Z,1.77
2023-03-11T20:14:10.050Z,4.50
2023-03-11T20:16:37.839Z,2.33
2023-03-11T20:19:04.801Z,1.63
2023-03-11T20:21:32.406Z,4.03
2023-03-11T20:24:27.469Z,4.18
2023-03-11T20:26:55.039Z,3.08
2023-03-11T20:29:28.656Z,3.75
2023-03-11T20:31:56.059Z,6.40
2023-03-11T20:34:35.972Z,3.20
2023-03-11T20:37:15.908Z,3.05
2023-03-11T20:39:45.139Z,1.83
2023-03-11T20:42:12.657Z,1.73
2023-03-11T20:44:54.936Z,1.73
2023-03-11T20:47:22.194Z,1.30
2023-03-11T20:49:50.605Z,1.52
2023-03-11T20:52:30.224Z,2.10
2023-03-11T20:54:57.054Z,2.00
2023-03-11T20:57:23.907Z,1.80
2023-03-11T20:59:51.275Z,4.43
2023-03-11T21:02:18.838Z,10.02
2023-03-11T21:04:48.118Z,19.58
2023-03-11T21:07:18.373Z,20.23
2023-03-11T21:09:45.482Z,22.42
2023-03-11T21:12:12.819Z,27.67
2023-03-11T21:14:42.602Z,27.10
2023-03-11T21:17:12.076Z,28.95
2023-03-11T21:19:39.469Z,28.63
2023-03-11T21:22:20.199Z,32.22
2023-03-11T21:24:51.398Z,31.20
2023-03-11T21:27:27.458Z,32.88
2023-03-11T21:29:57.915Z,32.55
2023-03-11T21:32:28.893Z,35.00
2023-03-11T21:34:57.615Z,34.92
2023-03-11T21:37:28.828Z,35.35
2023-03-11T21:40:01.877Z,37.05
2023-03-11T21:42:29.552Z,37.10
2023-03-11T21:45:04.623Z,37.55
2023-03-11T21:47:37.098Z,38.85
2023-03-11T21:50:09.589Z,40.28
2023-03-11T21:52:51.672Z,39.95
2023-03-11T21:56:23.888Z,41.28
2023-03-11T21:58:15.139Z,41.78
2023-03-11T22:00:55.737Z,43.13
2023-03-11T22:03:23.026Z,42.72
2023-03-11T22:05:56.077Z,44.05
2023-03-11T22:08:23.494Z,44.30
2023-03-11T22:10:51.028Z,45.10
2023-03-11T22:13:18.421Z,47.80
2023-03-11T22:15:45.722Z,48.47
2023-03-11T22:18:12.818Z,48.88
2023-03-11T22:20:40.412Z,47.35
2023-03-11T22:23:07.978Z,49.30
2023-03-11T22:25:38.130Z,48.28
2023-03-11T22:28:05.480Z,48.40
2023-03-11T22:30:32.587Z,49.22
2023-03-11T22:33:01.180Z,51.35
2023-03-11T22:35:31.664Z,50.75
2023-03-11T22:37:58.900Z,50.08
2023-03-11T22:40:36.843Z,52.78
2023-03-11T22:43:03.970Z,52.72
2023-03-11T22:45:30.786Z,53.38
2023-03-11T22:47:57.621Z,55.75
2023-03-11T22:50:24.428Z,53.50
2023-03-11T22:52:51.696Z,54.47
2023-03-11T22:55:28.425Z,54.70
2023-03-11T22:57:56.069Z,56.35
2023-03-11T23:00:23.492Z,54.70
2023-03-11T23:02:54.919Z,56.92
2023-03-11T23:05:22.443Z,57.17
2023-03-11T23:07:49.670Z,57.78
2023-03-11T23:10:19.731Z,58.38
2023-03-11T23:12:47.831Z,63.70
2023-03-11T23:15:16.113Z,63.97
2023-03-11T23:17:42.831Z,66.60
2023-03-11T23:20:11.661Z,67.00
2023-03-11T23:22:39.798Z,68.70
2023-03-11T23:25:09.008Z,67.00
2023-03-11T23:27:35.808Z,69.10
2023-03-11T23:30:02.936Z,64.93
2023-03-11T23:32:29.742Z,63.30
2023-03-11T23:34:56.498Z,64.00
2023-03-11T23:37:23.794Z,65.45
2023-03-11T23:39:51.330Z,62.42
2023-03-11T23:42:25.350Z,60.90
2023-03-11T23:44:52.834Z,61.13
2023-03-11T23:47:19.679Z,58.85
2023-03-11T23:49:46.534Z,54.45
2023-03-11T23:52:13.384Z,52.72
2023-03-11T23:54:40.097Z,52.30
2023-03-11T23:57:06.965Z,48.92
2023-03-11T23:59:33.837Z,45.63
